Kea Lani — VMQ4334 — position and weather

sailwx.info

Track history (hours):
 
Tides and Currents Weather Stations Pressure Air Temp Water Temp Dewpoint Dewpoint Depression Visibility Wind Speed Wind Dir Waves Ship Positions

Kea Lani

Last reported at 2017-Oct-28 07:58 UTC. Time now 2017-Dec-14 00:23 UTC.
Position S 27°24' E 153°09'.
Warning: this ship's position is 46 days out of date.

Length 14 m.

Type: Sailing vessel. MMSI: 503012130.

Date/timePositionNaut miles runAvg speedWind from/ knotsBaromVisibWave heightAir tempDewpointWater temp
2017-Oct-28 07:58S 27°24' E 153°09'4 8.1
2017-Oct-28 07:29S 27°21' E 153°11'4 8.3
2017-Oct-28 07:00S 27°17' E 153°13'3 5.6
2017-Oct-28 06:30S 27°15' E 153°15'  
2017-Oct-23 19:53S 22°22' E 166°13'3 7.1
2017-Oct-23 19:28S 22°21' E 166°16'3 6.6
2017-Oct-23 19:00S 22°19' E 166°18'1 1.2
2017-Oct-23 18:30S 22°19' E 166°19'0 0.0
2017-Oct-23 18:00S 22°19' E 166°19'0 0.0
2017-Oct-23 17:24S 22°19' E 166°19'0 0.0
2017-Oct-23 17:00S 22°19' E 166°19'0 0.1
2017-Oct-23 16:30S 22°19' E 166°19'0 0.0
2017-Oct-23 16:00S 22°19' E 166°19'0 0.0
2017-Oct-23 15:30S 22°19' E 166°19'0 0.0
2017-Oct-23 15:00S 22°19' E 166°19'0 0.0
2017-Oct-23 14:30S 22°19' E 166°19'0 0.0
2017-Oct-23 14:00S 22°19' E 166°19'0 0.0
2017-Oct-23 13:30S 22°19' E 166°19'0 0.0
2017-Oct-23 13:00S 22°19' E 166°19'0 0.0
2017-Oct-23 12:30S 22°19' E 166°19'0 0.0
2017-Oct-23 12:00S 22°19' E 166°19'0 0.0
2017-Oct-23 11:30S 22°19' E 166°19'0 0.0
2017-Oct-23 11:00S 22°19' E 166°19'0 0.0
2017-Oct-23 10:24S 22°19' E 166°19'0 0.1
2017-Oct-23 10:00S 22°19' E 166°19'0 0.0
2017-Oct-23 09:30S 22°19' E 166°19'0 0.0
2017-Oct-23 09:00S 22°19' E 166°19'0 0.0
2017-Oct-23 08:30S 22°19' E 166°19'0 0.0
2017-Oct-23 08:00S 22°19' E 166°19'0 0.0
2017-Oct-23 07:30S 22°19' E 166°19'0 0.0
2017-Oct-23 06:57S 22°19' E 166°19'0 0.0
2017-Oct-23 06:29S 22°19' E 166°19'0 0.0
2017-Oct-23 06:00S 22°19' E 166°19'0 0.0
2017-Oct-23 05:29S 22°19' E 166°19'0 0.0
2017-Oct-23 04:48S 22°19' E 166°19'0 0.0
2017-Oct-23 04:30S 22°19' E 166°19'0 0.0
2017-Oct-23 04:00S 22°19' E 166°19'0 0.0
2017-Oct-23 03:24S 22°19' E 166°19'0 0.0
2017-Oct-23 03:00S 22°19' E 166°19'0 0.0
2017-Oct-23 02:23S 22°19' E 166°19'0 0.0
2017-Oct-23 02:00S 22°19' E 166°19'0 0.0
2017-Oct-23 01:29S 22°19' E 166°19'0 0.0
2017-Oct-23 01:00S 22°19' E 166°19'3 5.5
2017-Oct-23 00:31S 22°18' E 166°22'4 7.2
2017-Oct-23 00:01S 22°17' E 166°25'1 1.5
2017-Oct-22 23:28S 22°17' E 166°26'0 0.5
2017-Oct-22 22:58S 22°17' E 166°26'0 0.1
2017-Oct-22 22:25S 22°17' E 166°26'0 0.0
2017-Oct-22 21:58S 22°17' E 166°26'0 0.0
2017-Oct-22 21:28S 22°17' E 166°26'0 0.0
2017-Oct-22 20:58S 22°17' E 166°26'0 0.0
2017-Oct-22 20:28S 22°17' E 166°26'0 0.0
2017-Oct-22 19:58S 22°17' E 166°26'0 0.0
2017-Oct-22 19:28S 22°17' E 166°26'0 0.1
2017-Oct-22 18:55S 22°17' E 166°26'0 0.1
2017-Oct-22 18:28S 22°17' E 166°26'0 0.1
2017-Oct-22 17:58S 22°17' E 166°26'0 0.1
2017-Oct-22 17:25S 22°17' E 166°26'0 0.0
2017-Oct-22 16:58S 22°17' E 166°26'0 0.0
2017-Oct-22 16:28S 22°17' E 166°26'0 0.0
2017-Oct-22 15:49S 22°17' E 166°26'0 0.0
2017-Oct-22 15:28S 22°17' E 166°26'0 0.0
2017-Oct-22 14:58S 22°17' E 166°26'0 0.0
2017-Oct-22 14:25S 22°17' E 166°26'0 0.1
2017-Oct-22 13:58S 22°17' E 166°26'0 0.0
2017-Oct-22 13:25S 22°17' E 166°26'0 0.0
2017-Oct-22 12:58S 22°17' E 166°26'0 0.0
2017-Oct-22 12:28S 22°17' E 166°26'0 0.0
2017-Oct-22 11:59S 22°17' E 166°26'0 0.1
2017-Oct-22 11:29S 22°17' E 166°26'  
Track history (hours):
 
Tides and Currents Weather Stations Pressure Air Temp Water Temp Dewpoint Dewpoint Depression Visibility Wind Speed Wind Dir Waves Ship Positions

Kea Lani

Last reported at 2017-Oct-28 07:58 UTC. Time now 2017-Dec-14 00:23 UTC.
Position S 27°24' E 153°09'.
Warning: this ship's position is 46 days out of date.

Length 14 m.

Type: Sailing vessel. MMSI: 503012130.

Date/timePositionNaut miles runAvg speedWind from/ knotsBaromVisibWave heightAir tempDewpointWater temp
2017-Oct-28 07:58S 27°24' E 153°09'4 8.1
2017-Oct-28 07:29S 27°21' E 153°11'4 8.3
2017-Oct-28 07:00S 27°17' E 153°13'3 5.6
2017-Oct-28 06:30S 27°15' E 153°15'  
2017-Oct-23 19:53S 22°22' E 166°13'3 7.1
2017-Oct-23 19:28S 22°21' E 166°16'3 6.6
2017-Oct-23 19:00S 22°19' E 166°18'1 1.2
2017-Oct-23 18:30S 22°19' E 166°19'0 0.0
2017-Oct-23 18:00S 22°19' E 166°19'0 0.0
2017-Oct-23 17:24S 22°19' E 166°19'0 0.0
2017-Oct-23 17:00S 22°19' E 166°19'0 0.1
2017-Oct-23 16:30S 22°19' E 166°19'0 0.0
2017-Oct-23 16:00S 22°19' E 166°19'0 0.0
2017-Oct-23 15:30S 22°19' E 166°19'0 0.0
2017-Oct-23 15:00S 22°19' E 166°19'0 0.0
2017-Oct-23 14:30S 22°19' E 166°19'0 0.0
2017-Oct-23 14:00S 22°19' E 166°19'0 0.0
2017-Oct-23 13:30S 22°19' E 166°19'0 0.0
2017-Oct-23 13:00S 22°19' E 166°19'0 0.0
2017-Oct-23 12:30S 22°19' E 166°19'0 0.0
2017-Oct-23 12:00S 22°19' E 166°19'0 0.0
2017-Oct-23 11:30S 22°19' E 166°19'0 0.0
2017-Oct-23 11:00S 22°19' E 166°19'0 0.0
2017-Oct-23 10:24S 22°19' E 166°19'0 0.1
2017-Oct-23 10:00S 22°19' E 166°19'0 0.0
2017-Oct-23 09:30S 22°19' E 166°19'0 0.0
2017-Oct-23 09:00S 22°19' E 166°19'0 0.0
2017-Oct-23 08:30S 22°19' E 166°19'0 0.0
2017-Oct-23 08:00S 22°19' E 166°19'0 0.0
2017-Oct-23 07:30S 22°19' E 166°19'0 0.0
2017-Oct-23 06:57S 22°19' E 166°19'0 0.0
2017-Oct-23 06:29S 22°19' E 166°19'0 0.0
2017-Oct-23 06:00S 22°19' E 166°19'0 0.0
2017-Oct-23 05:29S 22°19' E 166°19'0 0.0
2017-Oct-23 04:48S 22°19' E 166°19'0 0.0
2017-Oct-23 04:30S 22°19' E 166°19'0 0.0
2017-Oct-23 04:00S 22°19' E 166°19'0 0.0
2017-Oct-23 03:24S 22°19' E 166°19'0 0.0
2017-Oct-23 03:00S 22°19' E 166°19'0 0.0
2017-Oct-23 02:23S 22°19' E 166°19'0 0.0
2017-Oct-23 02:00S 22°19' E 166°19'0 0.0
2017-Oct-23 01:29S 22°19' E 166°19'0 0.0
2017-Oct-23 01:00S 22°19' E 166°19'3 5.5
2017-Oct-23 00:31S 22°18' E 166°22'4 7.2
2017-Oct-23 00:01S 22°17' E 166°25'1 1.5
2017-Oct-22 23:28S 22°17' E 166°26'0 0.5
2017-Oct-22 22:58S 22°17' E 166°26'0 0.1
2017-Oct-22 22:25S 22°17' E 166°26'0 0.0
2017-Oct-22 21:58S 22°17' E 166°26'0 0.0
2017-Oct-22 21:28S 22°17' E 166°26'0 0.0
2017-Oct-22 20:58S 22°17' E 166°26'0 0.0
2017-Oct-22 20:28S 22°17' E 166°26'0 0.0
2017-Oct-22 19:58S 22°17' E 166°26'0 0.0
2017-Oct-22 19:28S 22°17' E 166°26'0 0.1
2017-Oct-22 18:55S 22°17' E 166°26'0 0.1
2017-Oct-22 18:28S 22°17' E 166°26'0 0.1
2017-Oct-22 17:58S 22°17' E 166°26'0 0.1
2017-Oct-22 17:25S 22°17' E 166°26'0 0.0
2017-Oct-22 16:58S 22°17' E 166°26'0 0.0
2017-Oct-22 16:28S 22°17' E 166°26'0 0.0
2017-Oct-22 15:49S 22°17' E 166°26'0 0.0
2017-Oct-22 15:28S 22°17' E 166°26'0 0.0
2017-Oct-22 14:58S 22°17' E 166°26'0 0.0
2017-Oct-22 14:25S 22°17' E 166°26'0 0.1
2017-Oct-22 13:58S 22°17' E 166°26'0 0.0
2017-Oct-22 13:25S 22°17' E 166°26'0 0.0
2017-Oct-22 12:58S 22°17' E 166°26'0 0.0
2017-Oct-22 12:28S 22°17' E 166°26'0 0.0
2017-Oct-22 11:59S 22°17' E 166°26'0 0.1
2017-Oct-22 11:29S 22°17' E 166°26'  

Dump ship's entire track history